»·PEaware :: AAL1563 KABQ-KELP

AAL1563 :: KABQ-KELP

FLIGHT INFORMATION

Flight Status: Arrived
Operator:
American Airlines
More flights by this operator :: More flights under this callsign
Pilot: Drew L. (13237)
Aircraft: BOEING 737-800
(B738)
More flights by this aircraft type
Origin: KABQ Albuquerque Intl Sunport
United States
Destination: KELP El Paso Intl
United States
More flights between these airports :: More routes between these airports
Route: MNZNO3 ONM SLNNK WAZKO1
File this flight plan on PilotEdge
Remarks: PBN / A1B1C1D1S1S2 NAV / RNVD1E2A1 DAT / V DOF / 181008 REG / N902AN SEL / ALSY RMK / NRP SIMBRIEF
Altitude:
(Current/Filed)
28,000ft
Speed:
(Current/Filed)
484kts
Departed: 07-Oct-18 09:19 PM
Arrived: 07-Oct-18 10:07 PM
Distance/Time
Traveled:
195nm/0:48
Distance/Time
To Go:
Arrived

Flight Plot

Page will automatically refresh every two minutes.

Flight plan parsing failed; only flown route is shown


Map Options




Map Legend


Flown Route
Filed Route
Departure Airport
Arrival Airport
Navaid (VOR, NDB)
Fix

Horizontal Profiles

Position Reports

Time Latitude Longitude Heading Altitude Ground
Speed
07-Oct-18 20:56 35.046855 -106.618471 31 5322ft 0kts
07-Oct-18 20:57 35.046855 -106.618471 31 5322ft 0kts
07-Oct-18 20:58 35.046855 -106.618471 31 5322ft 0kts
07-Oct-18 20:59 35.046855 -106.618471 31 5322ft 0kts
07-Oct-18 21:00 35.046855 -106.618471 31 5322ft 0kts
07-Oct-18 21:01 35.046855 -106.618471 31 5322ft 0kts
07-Oct-18 21:02 35.046855 -106.618471 31 5322ft 0kts
07-Oct-18 21:03 35.046855 -106.618471 31 5322ft 0kts
07-Oct-18 21:04 35.046855 -106.618471 31 5322ft 0kts
07-Oct-18 21:05 35.046855 -106.618471 31 5322ft 0kts
07-Oct-18 21:06 35.046855 -106.618471 31 5323ft 0kts
07-Oct-18 21:07 35.046855 -106.618471 31 5322ft 0kts
07-Oct-18 21:08 35.046855 -106.618471 31 5322ft 0kts
07-Oct-18 21:09 35.046855 -106.618471 31 5322ft 0kts
07-Oct-18 21:10 35.046855 -106.618471 31 5322ft 0kts
07-Oct-18 21:11 35.046855 -106.618471 31 5322ft 0kts
07-Oct-18 21:12 35.046855 -106.618471 31 5322ft 0kts
07-Oct-18 21:13 35.046780 -106.618528 31 5323ft 2kts
07-Oct-18 21:14 35.046292 -106.618903 32 5323ft 0kts
07-Oct-18 21:15 35.045917 -106.618679 273 5323ft 0kts
07-Oct-18 21:16 35.045915 -106.618586 270 5322ft 0kts
07-Oct-18 21:17 35.045915 -106.618586 270 5322ft 0kts
07-Oct-18 21:18 35.045595 -106.620796 267 5323ft 11kts
07-Oct-18 21:19 35.045491 -106.621169 230 5323ft 0kts
07-Oct-18 21:20 35.044366 -106.621215 88 5322ft 3kts
07-Oct-18 21:21 35.044186 -106.592755 89 5341ft 180kts
07-Oct-18 21:22 35.026705 -106.536226 148 7266ft 184kts
07-Oct-18 21:23 34.974696 -106.508848 185 8116ft 242kts
07-Oct-18 21:24 34.901017 -106.515234 187 10875ft 269kts
07-Oct-18 21:25 34.826756 -106.517910 184 13870ft 273kts
07-Oct-18 21:26 34.755137 -106.556091 213 15209ft 299kts
07-Oct-18 21:27 34.685145 -106.611626 212 16928ft 306kts
07-Oct-18 21:28 34.612910 -106.667866 211 18429ft 312kts
07-Oct-18 21:29 34.539595 -106.724820 211 19720ft 317kts
07-Oct-18 21:30 34.462144 -106.776864 198 20832ft 323kts
07-Oct-18 21:31 34.375784 -106.807460 197 21806ft 327kts
07-Oct-18 21:32 34.289129 -106.843451 201 22660ft 331kts
07-Oct-18 21:33 34.203173 -106.884039 201 23410ft 335kts
07-Oct-18 21:34 34.116200 -106.924805 201 24084ft 338kts
07-Oct-18 21:35 34.028523 -106.965787 201 24664ft 341kts
07-Oct-18 21:36 33.941774 -107.006230 201 26078ft 317kts
07-Oct-18 21:37 33.864960 -107.041973 201 27480ft 292kts
07-Oct-18 21:38 33.790251 -107.076693 201 27920ft 297kts
07-Oct-18 21:39 33.710972 -107.113470 201 27914ft 314kts
07-Oct-18 21:40 33.627668 -107.152036 201 27891ft 331kts
07-Oct-18 21:41 33.539290 -107.192866 201 27876ft 351kts
07-Oct-18 21:42 33.446465 -107.235643 201 27869ft 360kts
07-Oct-18 21:43 33.368758 -107.271368 201 27868ft 359kts
07-Oct-18 21:44 33.256736 -107.308194 192 27867ft 361kts
07-Oct-18 21:45 33.158883 -107.331548 193 27865ft 361kts
07-Oct-18 21:46 33.077129 -107.351349 193 27863ft 361kts
07-Oct-18 21:47 32.960378 -107.362113 173 27866ft 377kts
07-Oct-18 21:48 32.883484 -107.317097 151 27879ft 398kts
07-Oct-18 21:49 32.794689 -107.238157 151 27654ft 403kts
07-Oct-18 21:50 32.691193 -107.146086 150 24914ft 404kts
07-Oct-18 21:51 32.615764 -107.079191 150 22935ft 411kts
07-Oct-18 21:52 32.523331 -106.998250 151 20558ft 417kts
07-Oct-18 21:53 32.427887 -106.918785 150 18521ft 424kts
07-Oct-18 21:54 32.331564 -106.838633 149 16841ft 412kts
07-Oct-18 21:55 32.242664 -106.764722 149 14829ft 374kts
07-Oct-18 21:56 32.159307 -106.695758 149 12818ft 362kts
07-Oct-18 21:57 32.074420 -106.637154 148 11990ft 358kts
07-Oct-18 21:58 32.018093 -106.538485 110 11982ft 378kts
07-Oct-18 21:59 31.994395 -106.417492 101 11971ft 382kts
07-Oct-18 22:00 31.978784 -106.298090 102 11755ft 346kts
07-Oct-18 22:01 31.963948 -106.189767 102 10312ft 322kts
07-Oct-18 22:02 31.926304 -106.110635 163 8977ft 265kts
07-Oct-18 22:03 31.868446 -106.115027 203 8588ft 196kts
07-Oct-18 22:04 31.817928 -106.136592 203 6800ft 194kts
07-Oct-18 22:05 31.791556 -106.183970 269 5053ft 191kts
07-Oct-18 22:06 31.794600 -106.243557 270 4976ft 184kts
07-Oct-18 22:07 31.797599 -106.300895 270 4979ft 180kts
07-Oct-18 22:08 31.800370 -106.355520 270 4047ft 144kts
07-Oct-18 22:09 31.801830 -106.384326 275 3943ft 17kts
07-Oct-18 22:10 31.801852 -106.384607 274 3943ft 0kts

Navigation Log

Ident Type
Flight plan parsing failed, navigation log unavailable